createdAt,value
2022-11-18T00:00:05.064Z,98666.81
2022-11-18T00:03:06.861Z,98671.94
2022-11-18T00:06:12.264Z,98665.91
2022-11-18T00:09:13.708Z,98672.78
2022-11-18T00:12:33.780Z,98669.84
2022-11-18T00:15:35.180Z,98669.09
2022-11-18T00:18:37.276Z,98661.19
2022-11-18T00:21:38.682Z,98671.00
2022-11-18T00:24:40.102Z,98673.63
2022-11-18T00:27:41.485Z,98669.28
2022-11-18T00:30:42.892Z,98674.34
2022-11-18T00:33:44.305Z,98672.56
2022-11-18T00:36:47.090Z,98673.44
2022-11-18T00:39:48.487Z,98676.81
2022-11-18T00:42:53.588Z,98672.28
2022-11-18T00:45:55.077Z,98674.75
2022-11-18T00:48:56.465Z,98679.81
2022-11-18T00:52:01.198Z,98668.81
2022-11-18T00:55:02.620Z,98671.44
2022-11-18T00:58:04.016Z,98664.38
2022-11-18T01:01:05.971Z,98675.91
2022-11-18T01:04:07.484Z,98673.63
2022-11-18T01:07:08.986Z,98679.16
2022-11-18T01:10:10.505Z,98678.22
2022-11-18T01:13:21.129Z,98685.09
2022-11-18T01:16:25.150Z,98683.97
2022-11-18T01:19:27.065Z,98690.72
2022-11-18T01:22:28.477Z,98694.13
2022-11-18T01:25:30.330Z,98701.56
2022-11-18T01:28:32.244Z,98710.13
2022-11-18T01:31:33.640Z,98703.66
2022-11-18T01:34:35.267Z,98707.88
2022-11-18T01:37:37.221Z,98710.34
2022-11-18T01:40:39.165Z,98700.66
2022-11-18T01:44:28.192Z,98711.34
2022-11-18T01:47:40.236Z,98710.13
2022-11-18T01:50:49.421Z,98720.19
2022-11-18T01:54:02.328Z,98717.63
2022-11-18T01:57:08.304Z,98716.41
2022-11-18T02:00:10.562Z,98715.41
2022-11-18T02:03:12.186Z,98722.34
2022-11-18T02:06:13.847Z,98718.03
2022-11-18T02:09:16.829Z,98716.22
2022-11-18T02:12:19.368Z,98716.69
2022-11-18T02:15:32.593Z,98723.84
2022-11-18T02:18:43.535Z,98732.50
2022-11-18T02:22:09.496Z,98735.13
2022-11-18T02:25:54.142Z,98735.88
2022-11-18T02:29:08.515Z,98736.16
2022-11-18T02:32:17.249Z,98739.06
2022-11-18T02:35:21.359Z,98741.97
2022-11-18T02:38:34.740Z,98742.72
2022-11-18T02:41:39.435Z,98747.50
2022-11-18T02:44:46.019Z,98756.16
2022-11-18T02:47:49.468Z,98751.81
2022-11-18T02:50:52.644Z,98753.13
2022-11-18T02:53:59.477Z,98752.94
2022-11-18T02:57:02.895Z,98752.38
2022-11-18T03:00:04.892Z,98760.19
2022-11-18T03:03:27.234Z,98760.19
2022-11-18T03:06:41.218Z,98769.91
2022-11-18T03:09:45.695Z,98766.63
2022-11-18T03:13:08.024Z,98768.22
2022-11-18T03:16:17.120Z,98771.56
2022-11-18T03:19:35.573Z,98767.03
2022-11-18T03:22:47.628Z,98771.03
2022-11-18T03:26:03.531Z,98767.56
2022-11-18T03:29:10.321Z,98770.00
2022-11-18T03:32:28.449Z,98777.31
2022-11-18T03:35:33.651Z,98780.88
2022-11-18T03:38:41.145Z,98776.09
2022-11-18T03:42:02.445Z,98782.22
2022-11-18T03:45:10.735Z,98789.47
2022-11-18T03:48:22.428Z,98789.28
2022-11-18T03:51:30.127Z,98796.19
2022-11-18T03:54:33.924Z,98801.47
2022-11-18T03:57:54.045Z,98801.47
2022-11-18T04:01:01.716Z,98806.38
2022-11-18T04:04:03.431Z,98806.53
2022-11-18T04:07:04.826Z,98803.28
2022-11-18T04:10:35.600Z,98812.31
2022-11-18T04:13:37.832Z,98815.03
2022-11-18T04:16:43.437Z,98817.38
2022-11-18T04:19:44.864Z,98812.31
2022-11-18T04:22:46.416Z,98816.06
2022-11-18T04:25:47.829Z,98821.78
2022-11-18T04:28:49.214Z,98830.22
2022-11-18T04:31:50.918Z,98830.31
2022-11-18T04:34:52.324Z,98826.25
2022-11-18T04:37:54.191Z,98837.59
2022-11-18T04:40:55.572Z,98834.06
2022-11-18T04:43:56.952Z,98843.91
2022-11-18T04:47:00.745Z,98852.56
2022-11-18T04:50:02.128Z,98852.22
2022-11-18T04:53:03.524Z,98849.91
2022-11-18T04:56:06.769Z,98869.03
2022-11-18T04:59:09.746Z,98872.75
2022-11-18T05:02:11.242Z,98867.69
2022-11-18T05:05:12.687Z,98879.84
2022-11-18T05:08:14.084Z,98876.34
2022-11-18T05:11:34.559Z,98886.78
2022-11-18T05:14:36.071Z,98888.41
2022-11-18T05:17:37.504Z,98897.56
2022-11-18T05:20:41.784Z,98896.78
2022-11-18T05:23:43.485Z,98903.84
2022-11-18T05:26:45.293Z,98907.81
2022-11-18T05:29:46.697Z,98916.22
2022-11-18T05:32:48.092Z,98911.88
2022-11-18T05:35:53.929Z,98912.56
2022-11-18T05:38:59.473Z,98926.09
2022-11-18T05:42:19.880Z,98927.75
2022-11-18T05:45:21.363Z,98932.66
2022-11-18T05:48:23.089Z,98938.59
2022-11-18T05:51:24.505Z,98943.00
2022-11-18T05:54:26.486Z,98946.06
2022-11-18T05:57:27.860Z,98945.03
2022-11-18T06:00:30.752Z,98944.72
2022-11-18T06:03:36.565Z,98953.94
2022-11-18T06:06:38.262Z,98955.72
2022-11-18T06:09:44.717Z,98964.53
2022-11-18T06:12:49.698Z,98974.59
2022-11-18T06:15:51.305Z,98972.75
2022-11-18T06:18:52.992Z,98983.41
2022-11-18T06:21:54.680Z,98983.75
2022-11-18T06:24:56.103Z,98988.91
2022-11-18T06:28:00.503Z,98994.78
2022-11-18T06:31:02.177Z,98998.06
2022-11-18T06:34:03.580Z,99004.31
2022-11-18T06:37:15.296Z,99009.75
2022-11-18T06:40:17.092Z,99014.22
2022-11-18T06:43:37.126Z,99021.72
2022-11-18T06:46:56.598Z,99026.19
2022-11-18T06:49:58.052Z,99032.16
2022-11-18T06:53:01.315Z,99038.97
2022-11-18T06:56:10.868Z,99047.16
2022-11-18T06:59:12.876Z,99054.75
2022-11-18T07:02:14.332Z,99060.16
2022-11-18T07:05:15.811Z,99064.56
2022-11-18T07:08:17.197Z,99068.34
2022-11-18T07:11:22.004Z,99077.78
2022-11-18T07:14:23.635Z,99086.53
2022-11-18T07:17:25.549Z,99087.13
2022-11-18T07:20:27.166Z,99088.00
2022-11-18T07:23:30.016Z,99090.72
2022-11-18T07:26:31.481Z,99092.00
2022-11-18T07:29:32.866Z,99094.50
2022-11-18T07:32:34.365Z,99096.94
2022-11-18T07:35:35.755Z,99103.91
2022-11-18T07:38:37.394Z,99109.09
2022-11-18T07:41:40.120Z,99115.41
2022-11-18T07:44:41.500Z,99124.16
2022-11-18T07:47:42.912Z,99129.19
2022-11-18T07:50:47.219Z,99132.53
2022-11-18T07:53:48.888Z,99146.16
2022-11-18T07:56:50.267Z,99147.75
2022-11-18T07:59:51.649Z,99152.03
2022-11-18T08:02:53.016Z,99149.28
2022-11-18T08:06:04.747Z,99151.06
2022-11-18T08:09:07.037Z,99164.09
2022-11-18T08:12:08.634Z,99162.38
2022-11-18T08:15:10.460Z,99172.75
2022-11-18T08:18:13.880Z,99176.31
2022-11-18T08:21:18.273Z,99172.97
2022-11-18T08:24:19.656Z,99178.94
2022-11-18T08:27:21.264Z,99176.03
2022-11-18T08:30:22.722Z,99178.78
2022-11-18T08:33:24.280Z,99180.09
2022-11-18T08:36:28.155Z,99182.56
2022-11-18T08:39:29.546Z,99181.13
2022-11-18T08:42:34.277Z,99186.53
2022-11-18T08:45:37.925Z,99182.13
2022-11-18T08:48:39.580Z,99181.28
2022-11-18T08:51:41.139Z,99183.13
2022-11-18T08:54:42.537Z,99181.28
2022-11-18T08:57:43.963Z,99194.91
2022-11-18T09:00:45.344Z,99194.78
2022-11-18T09:03:47.244Z,99191.41
2022-11-18T09:06:48.645Z,99193.13
2022-11-18T09:09:50.248Z,99186.41
2022-11-18T09:12:51.685Z,99197.44
2022-11-18T09:15:53.146Z,99202.13
2022-11-18T09:18:56.254Z,99193.41
2022-11-18T09:21:57.715Z,99201.00
2022-11-18T09:24:59.091Z,99206.09
2022-11-18T09:28:00.475Z,99194.97
2022-11-18T09:31:07.896Z,99208.44
2022-11-18T09:34:10.271Z,99205.50
2022-11-18T09:37:11.714Z,99202.94
2022-11-18T09:40:18.194Z,99207.84
2022-11-18T09:43:44.460Z,99207.28
2022-11-18T09:47:02.935Z,99230.91
2022-11-18T09:50:41.548Z,99228.78
2022-11-18T09:53:35.241Z,99230.63
2022-11-18T09:56:36.707Z,99236.13
2022-11-18T09:59:38.280Z,99237.13
2022-11-18T10:03:04.732Z,99235.41
2022-11-18T10:06:09.727Z,99235.19
2022-11-18T10:09:51.901Z,99239.31
2022-11-18T10:13:05.742Z,99249.38
2022-11-18T10:16:23.804Z,99243.94
2022-11-18T10:19:42.856Z,99252.34
2022-11-18T10:22:52.398Z,99246.91
2022-11-18T10:25:54.569Z,99241.97
2022-11-18T10:28:56.042Z,99248.00
2022-11-18T10:32:07.593Z,99249.88
2022-11-18T10:35:25.233Z,99251.41
2022-11-18T10:38:26.684Z,99247.53
2022-11-18T10:41:28.201Z,99247.31
2022-11-18T10:44:43.449Z,99248.16
2022-11-18T10:47:56.733Z,99259.00
2022-11-18T10:50:58.204Z,99260.25
2022-11-18T10:54:13.388Z,99252.81
2022-11-18T10:57:25.152Z,99261.47
2022-11-18T11:00:43.408Z,99261.03
2022-11-18T11:04:16.037Z,99255.25
2022-11-18T11:07:33.035Z,99252.16
2022-11-18T11:10:34.713Z,99259.13
2022-11-18T11:13:43.146Z,99259.31
2022-11-18T11:16:58.461Z,99255.56
2022-11-18T11:20:18.267Z,99255.56
2022-11-18T11:23:23.726Z,99251.91
2022-11-18T11:30:12.829Z,99264.34
2022-11-18T11:33:38.512Z,99262.81
2022-11-18T11:36:45.723Z,99267.06
2022-11-18T11:39:59.245Z,99272.28
2022-11-18T11:43:24.551Z,99267.72
2022-11-18T11:47:12.706Z,99273.94
2022-11-18T11:50:29.966Z,99278.88
2022-11-18T11:53:56.617Z,99279.38
2022-11-18T11:57:09.871Z,99279.66
2022-11-18T12:00:16.334Z,99280.41
2022-11-18T12:03:48.771Z,99278.53
2022-11-18T12:06:54.903Z,99278.53
2022-11-18T12:10:02.271Z,99275.97
2022-11-18T12:13:08.808Z,99279.19
2022-11-18T12:16:36.457Z,99276.31
2022-11-18T12:19:39.573Z,99282.63
2022-11-18T12:23:09.064Z,99286.06
2022-11-18T12:26:11.341Z,99277.88
2022-11-18T12:29:23.549Z,99288.25
2022-11-18T12:32:46.493Z,99288.34
2022-11-18T12:35:50.966Z,99282.63
2022-11-18T12:38:53.515Z,99284.09
2022-11-18T12:42:21.966Z,99286.72
2022-11-18T12:45:48.775Z,99280.41
2022-11-18T12:48:50.196Z,99283.16
2022-11-18T12:51:56.455Z,99287.06
2022-11-18T12:55:01.075Z,99288.78
2022-11-18T12:58:02.517Z,99292.16
2022-11-18T13:01:10.591Z,99296.44
2022-11-18T13:04:16.621Z,99285.38
2022-11-18T13:07:37.925Z,99296.44
2022-11-18T13:10:50.388Z,99291.00
2022-11-18T13:14:15.195Z,99291.53
2022-11-18T13:17:50.479Z,99298.34
2022-11-18T13:20:57.594Z,99293.72
2022-11-18T13:24:02.065Z,99299.84
2022-11-18T13:27:04.897Z,99302.97
2022-11-18T13:30:11.388Z,99310.56
2022-11-18T13:33:12.972Z,99310.91
2022-11-18T13:36:23.676Z,99307.84
2022-11-18T13:39:31.017Z,99314.84
2022-11-18T13:42:32.574Z,99311.94
2022-11-18T13:45:34.712Z,99318.66
2022-11-18T13:48:41.418Z,99315.38
2022-11-18T13:51:43.097Z,99313.47
2022-11-18T13:54:45.727Z,99311.28
2022-11-18T13:57:50.589Z,99306.50
2022-11-18T14:00:57.836Z,99310.69
2022-11-18T14:04:03.255Z,99312.19
2022-11-18T14:07:28.910Z,99315.31
2022-11-18T14:10:42.647Z,99316.69
2022-11-18T14:13:51.448Z,99318.22
2022-11-18T14:16:52.856Z,99307.31
2022-11-18T14:19:59.028Z,99312.41
2022-11-18T14:23:03.202Z,99313.16
2022-11-18T14:26:06.971Z,99310.63
2022-11-18T14:29:21.329Z,99310.53
2022-11-18T14:32:23.408Z,99316.59
2022-11-18T14:35:24.816Z,99319.13
2022-11-18T14:41:58.269Z,99328.16
2022-11-18T14:44:59.655Z,99328.41
2022-11-18T14:48:01.581Z,99334.91
2022-11-18T14:51:03.173Z,99334.13
2022-11-18T14:54:04.664Z,99334.91
2022-11-18T14:57:06.304Z,99335.41
2022-11-18T15:00:14.116Z,99332.09
2022-11-18T15:03:16.284Z,99348.09
2022-11-18T15:06:20.296Z,99353.44
2022-11-18T15:09:21.768Z,99350.00
2022-11-18T15:12:23.179Z,99358.59
2022-11-18T15:15:24.980Z,99360.81
2022-11-18T15:18:26.478Z,99370.47
2022-11-18T15:21:28.708Z,99364.38
2022-11-18T15:24:30.101Z,99362.59
2022-11-18T15:27:31.604Z,99371.22
2022-11-18T15:30:33.080Z,99378.63
2022-11-18T15:33:34.544Z,99380.31
2022-11-18T15:36:36.327Z,99382.53
2022-11-18T15:39:37.837Z,99390.59
2022-11-18T15:42:47.494Z,99390.59
2022-11-18T15:45:59.608Z,99394.03
2022-11-18T15:49:01.331Z,99404.88
2022-11-18T15:52:03.084Z,99402.38
2022-11-18T15:55:08.094Z,99407.22
2022-11-18T15:58:09.848Z,99407.22
2022-11-18T16:01:12.008Z,99412.78
2022-11-18T16:04:15.961Z,99413.09
2022-11-18T16:07:17.586Z,99419.22
2022-11-18T16:10:38.028Z,99415.88
2022-11-18T16:13:39.516Z,99415.72
2022-11-18T16:16:42.565Z,99418.41
2022-11-18T16:19:43.954Z,99417.41
2022-11-18T16:22:45.444Z,99424.09
2022-11-18T16:25:46.926Z,99419.25
2022-11-18T16:28:48.879Z,99420.91
2022-11-18T16:31:52.045Z,99425.44
2022-11-18T16:34:58.058Z,99424.53
2022-11-18T16:38:02.562Z,99420.41
2022-11-18T16:41:23.991Z,99430.25
2022-11-18T16:44:25.519Z,99424.13
2022-11-18T16:47:26.986Z,99431.34
2022-11-18T16:50:28.416Z,99430.00
2022-11-18T16:53:29.819Z,99432.75
2022-11-18T16:56:33.915Z,99434.53
2022-11-18T16:59:36.640Z,99434.63
2022-11-18T17:02:38.078Z,99443.31
2022-11-18T17:05:40.585Z,99454.88
2022-11-18T17:08:42.072Z,99446.34
2022-11-18T17:11:43.554Z,99448.13
2022-11-18T17:14:44.972Z,99455.84
2022-11-18T17:17:46.344Z,99453.72
2022-11-18T17:20:47.788Z,99453.84
2022-11-18T17:23:50.013Z,99454.47
2022-11-18T17:26:52.535Z,99454.56
2022-11-18T17:29:55.889Z,99460.53
2022-11-18T17:32:58.095Z,99458.69
2022-11-18T17:36:01.339Z,99467.34
2022-11-18T17:39:02.807Z,99464.66
2022-11-18T17:42:30.643Z,99458.53
2022-11-18T17:45:32.044Z,99464.78
2022-11-18T17:48:33.636Z,99466.66
2022-11-18T17:51:35.057Z,99471.06
2022-11-18T17:54:36.597Z,99479.22
2022-11-18T17:57:38.005Z,99476.81
2022-11-18T18:00:40.242Z,99481.41
2022-11-18T18:03:43.490Z,99489.50
2022-11-18T18:06:45.049Z,99489.72
2022-11-18T18:09:46.484Z,99492.56
2022-11-18T18:13:07.063Z,99495.22
2022-11-18T18:16:08.475Z,99501.41
2022-11-18T18:19:11.536Z,99501.47
2022-11-18T18:22:12.924Z,99510.34
2022-11-18T18:25:14.621Z,99504.16
2022-11-18T18:28:16.009Z,99506.72
2022-11-18T18:31:18.081Z,99508.44
2022-11-18T18:34:19.634Z,99505.88
2022-11-18T18:37:21.164Z,99505.81
2022-11-18T18:40:22.784Z,99507.72
2022-11-18T18:43:24.180Z,99516.28
2022-11-18T18:46:31.782Z,99518.97
2022-11-18T18:49:33.217Z,99516.28
2022-11-18T18:52:34.628Z,99516.28
2022-11-18T18:55:39.305Z,99516.13
2022-11-18T18:58:44.927Z,99520.69
2022-11-18T19:01:46.503Z,99513.59
2022-11-18T19:04:47.983Z,99522.69
2022-11-18T19:07:49.436Z,99516.41
2022-11-18T19:10:50.863Z,99530.66
2022-11-18T19:13:52.335Z,99526.53
2022-11-18T19:16:54.629Z,99524.06
2022-11-18T19:20:15.046Z,99525.19
2022-11-18T19:23:17.972Z,99527.03
2022-11-18T19:26:20.152Z,99525.31
2022-11-18T19:32:43.151Z,99535.09
2022-11-18T19:35:44.596Z,99542.25
2022-11-18T19:38:49.360Z,99543.31
2022-11-18T19:41:50.793Z,99544.50
2022-11-18T19:44:52.269Z,99548.78
2022-11-18T19:47:53.693Z,99550.56
2022-11-18T19:51:12.483Z,99553.78
2022-11-18T19:54:13.942Z,99557.34
2022-11-18T19:57:15.444Z,99560.88
2022-11-18T20:00:17.474Z,99560.03
2022-11-18T20:03:18.998Z,99562.34
2022-11-18T20:06:21.949Z,99559.13
2022-11-18T20:09:25.236Z,99561.81
2022-11-18T20:12:28.415Z,99562.34
2022-11-18T20:15:29.798Z,99566.84
2022-11-18T20:18:31.671Z,99563.13
2022-11-18T20:21:34.079Z,99571.88
2022-11-18T20:24:35.526Z,99567.44
2022-11-18T20:27:37.007Z,99569.25
2022-11-18T20:30:39.424Z,99570.13
2022-11-18T20:33:43.916Z,99578.94
2022-11-18T20:36:46.502Z,99571.94
2022-11-18T20:39:47.928Z,99571.94
2022-11-18T20:43:07.874Z,99574.53
2022-11-18T20:46:10.365Z,99573.81
2022-11-18T20:49:11.746Z,99574.66
2022-11-18T20:52:13.139Z,99573.56
2022-11-18T20:55:15.769Z,99583.94
2022-11-18T20:58:18.550Z,99574.59
2022-11-18T21:01:25.599Z,99582.13
2022-11-18T21:04:27.048Z,99575.19
2022-11-18T21:07:28.749Z,99588.25
2022-11-18T21:10:33.296Z,99580.50
2022-11-18T21:13:54.319Z,99587.34
2022-11-18T21:17:00.262Z,99581.88
2022-11-18T21:20:21.645Z,99582.13
2022-11-18T21:23:23.420Z,99577.63
2022-11-18T21:26:26.572Z,99582.88
2022-11-18T21:29:30.559Z,99575.97
2022-11-18T21:32:32.081Z,99572.47
2022-11-18T21:35:34.332Z,99575.25
2022-11-18T21:38:35.760Z,99572.63
2022-11-18T21:41:38.130Z,99573.53
2022-11-18T21:44:39.739Z,99576.56
2022-11-18T21:47:41.147Z,99576.44
2022-11-18T21:50:42.526Z,99577.34
2022-11-18T21:53:44.380Z,99581.84
2022-11-18T21:56:45.841Z,99591.59
2022-11-18T21:59:47.230Z,99599.44
2022-11-18T22:02:48.679Z,99593.38
2022-11-18T22:05:54.568Z,99591.09
2022-11-18T22:08:56.431Z,99594.44
2022-11-18T22:11:58.085Z,99604.03
2022-11-18T22:14:59.634Z,99596.66
2022-11-18T22:18:01.031Z,99598.06
2022-11-18T22:21:05.119Z,99600.34
2022-11-18T22:24:07.172Z,99606.63
2022-11-18T22:27:11.504Z,99603.84
2022-11-18T22:30:13.248Z,99604.97
2022-11-18T22:33:14.836Z,99604.31
2022-11-18T22:36:17.903Z,99604.50
2022-11-18T22:39:19.646Z,99605.47
2022-11-18T22:42:39.800Z,99602.72
2022-11-18T22:45:41.186Z,99605.84
2022-11-18T22:48:42.573Z,99608.47
2022-11-18T22:51:43.998Z,99611.59
2022-11-18T22:54:45.393Z,99602.72
2022-11-18T22:57:46.859Z,99600.81
2022-11-18T23:00:48.262Z,99608.75
2022-11-18T23:03:52.955Z,99612.44
2022-11-18T23:06:54.468Z,99612.81
2022-11-18T23:09:55.907Z,99613.50
2022-11-18T23:13:15.794Z,99614.41
2022-11-18T23:16:17.539Z,99615.72
2022-11-18T23:19:19.448Z,99617.31
2022-11-18T23:22:21.089Z,99615.72
2022-11-18T23:25:22.666Z,99615.00
2022-11-18T23:28:24.079Z,99621.25
2022-11-18T23:31:27.460Z,99618.94
2022-11-18T23:34:28.848Z,99625.66
2022-11-18T23:37:30.308Z,99621.25
2022-11-18T23:40:31.737Z,99621.50
2022-11-18T23:43:34.660Z,99617.69
2022-11-18T23:46:36.050Z,99603.63
2022-11-18T23:49:37.440Z,99617.84
2022-11-18T23:52:41.735Z,99619.81
2022-11-18T23:55:43.127Z,99614.78
2022-11-18T23:58:47.198Z,99613.84
